sensor_id;sensor_type;location;lat;lon;timestamp;temperature;humidity
9668;DHT22;4872;48.316;10.650;2023-04-08T04:04:07;5.90;99.90
9668;DHT22;4872;48.316;10.650;2023-04-08T04:06:34;5.80;99.90
9668;DHT22;4872;48.316;10.650;2023-04-08T04:09:01;5.80;99.90
9668;DHT22;4872;48.316;10.650;2023-04-08T04:11:27;5.80;99.90
9668;DHT22;4872;48.316;10.650;2023-04-08T04:13:54;6.60;99.90
9668;DHT22;4872;48.316;10.650;2023-04-08T04:16:21;6.20;99.90
9668;DHT22;4872;48.316;10.650;2023-04-08T04:18:48;5.80;99.90
9668;DHT22;4872;48.316;10.650;2023-04-08T04:21:16;5.90;99.90
9668;DHT22;4872;48.316;10.650;2023-04-08T04:23:43;6.00;99.90
9668;DHT22;4872;48.316;10.650;2023-04-08T04:26:10;5.80;99.90
9668;DHT22;4872;48.316;10.650;2023-04-08T04:28:37;5.90;99.90
9668;DHT22;4872;48.316;10.650;2023-04-08T04:31:04;6.00;99.90
9668;DHT22;4872;48.316;10.650;2023-04-08T04:33:31;6.00;99.90
9668;DHT22;4872;48.316;10.650;2023-04-08T04:35:57;6.00;99.90
9668;DHT22;4872;48.316;10.650;2023-04-08T04:38:26;6.10;99.90
9668;DHT22;4872;48.316;10.650;2023-04-08T04:40:53;6.10;99.90
9668;DHT22;4872;48.316;10.650;2023-04-08T04:43:19;6.60;99.90
9668;DHT22;4872;48.316;10.650;2023-04-08T04:45:46;6.40;99.90
9668;DHT22;4872;48.316;10.650;2023-04-08T04:48:13;6.30;99.90
9668;DHT22;4872;48.316;10.650;2023-04-08T04:50:40;6.20;99.90
9668;DHT22;4872;48.316;10.650;2023-04-08T04:53:06;6.50;99.90
9668;DHT22;4872;48.316;10.650;2023-04-08T04:55:35;6.20;99.90
9668;DHT22;4872;48.316;10.650;2023-04-08T04:58:01;6.20;99.90
9668;DHT22;4872;48.316;10.650;2023-04-08T05:00:28;6.20;99.90
9668;DHT22;4872;48.316;10.650;2023-04-08T05:02:55;6.30;99.90
9668;DHT22;4872;48.316;10.650;2023-04-08T05:05:22;6.30;99.90
9668;DHT22;4872;48.316;10.650;2023-04-08T05:07:48;6.30;99.90
9668;DHT22;4872;48.316;10.650;2023-04-08T05:10:15;6.30;99.90
9668;DHT22;4872;48.316;10.650;2023-04-08T05:12:43;6.30;99.90
9668;DHT22;4872;48.316;10.650;2023-04-08T05:15:10;7.10;99.90
9668;DHT22;4872;48.316;10.650;2023-04-08T05:17:37;6.40;99.90
9668;DHT22;4872;48.316;10.650;2023-04-08T05:20:05;7.40;99.90
9668;DHT22;4872;48.316;10.650;2023-04-08T05:22:32;6.30;99.90
9668;DHT22;4872;48.316;10.650;2023-04-08T05:25:00;6.40;99.90
9668;DHT22;4872;48.316;10.650;2023-04-08T05:27:26;6.40;99.90
9668;DHT22;4872;48.316;10.650;2023-04-08T05:29:54;6.40;99.90
9668;DHT22;4872;48.316;10.650;2023-04-08T05:32:22;6.50;99.90
9668;DHT22;4872;48.316;10.650;2023-04-08T05:34:49;7.50;99.90
9668;DHT22;4872;48.316;10.650;2023-04-08T05:37:15;6.40;99.90
9668;DHT22;4872;48.316;10.650;2023-04-08T05:39:42;6.60;99.90
9668;DHT22;4872;48.316;10.650;2023-04-08T05:42:09;6.60;99.90
9668;DHT22;4872;48.316;10.650;2023-04-08T05:44:38;6.70;99.90
9668;DHT22;4872;48.316;10.650;2023-04-08T05:47:07;6.70;99.90
9668;DHT22;4872;48.316;10.650;2023-04-08T05:49:34;6.70;99.90
9668;DHT22;4872;48.316;10.650;2023-04-08T05:52:00;6.50;99.90
9668;DHT22;4872;48.316;10.650;2023-04-08T05:54:28;8.00;99.90
9668;DHT22;4872;48.316;10.650;2023-04-08T05:56:55;6.80;99.90
9668;DHT22;4872;48.316;10.650;2023-04-08T05:59:21;6.70;99.90
9668;DHT22;4872;48.316;10.650;2023-04-08T06:01:50;6.70;99.90
9668;DHT22;4872;48.316;10.650;2023-04-08T06:04:20;7.00;99.90
9668;DHT22;4872;48.316;10.650;2023-04-08T06:06:47;6.80;99.90
9668;DHT22;4872;48.316;10.650;2023-04-08T06:09:16;6.80;99.90
9668;DHT22;4872;48.316;10.650;2023-04-08T06:11:43;7.10;99.90
9668;DHT22;4872;48.316;10.650;2023-04-08T06:14:11;7.00;99.90
9668;DHT22;4872;48.316;10.650;2023-04-08T06:16:38;7.10;99.90
9668;DHT22;4872;48.316;10.650;2023-04-08T06:19:05;7.40;99.90
9668;DHT22;4872;48.316;10.650;2023-04-08T06:21:33;7.30;99.90
9668;DHT22;4872;48.316;10.650;2023-04-08T06:23:59;7.30;99.90
9668;DHT22;4872;48.316;10.650;2023-04-08T06:26:26;7.40;99.90
9668;DHT22;4872;48.316;10.650;2023-04-08T06:28:53;7.30;99.90
9668;DHT22;4872;48.316;10.650;2023-04-08T06:31:20;7.10;99.90
9668;DHT22;4872;48.316;10.650;2023-04-08T06:33:47;7.30;99.90
9668;DHT22;4872;48.316;10.650;2023-04-08T06:36:14;7.10;99.90
9668;DHT22;4872;48.316;10.650;2023-04-08T06:38:42;7.10;99.90
9668;DHT22;4872;48.316;10.650;2023-04-08T06:41:08;7.30;99.90
9668;DHT22;4872;48.316;10.650;2023-04-08T06:43:35;7.10;99.90
9668;DHT22;4872;48.316;10.650;2023-04-08T06:46:03;7.20;99.90
9668;DHT22;4872;48.316;10.650;2023-04-08T06:48:29;7.30;99.90
9668;DHT22;4872;48.316;10.650;2023-04-08T06:50:56;7.40;99.90
9668;DHT22;4872;48.316;10.650;2023-04-08T06:53:24;7.40;99.90
9668;DHT22;4872;48.316;10.650;2023-04-08T06:55:52;7.60;99.90
9668;DHT22;4872;48.316;10.650;2023-04-08T06:58:19;7.60;99.90
9668;DHT22;4872;48.316;10.650;2023-04-08T07:00:47;7.60;99.90
9668;DHT22;4872;48.316;10.650;2023-04-08T07:03:13;7.80;99.90
9668;DHT22;4872;48.316;10.650;2023-04-08T07:05:40;7.60;99.90
9668;DHT22;4872;48.316;10.650;2023-04-08T07:08:08;7.70;99.90
9668;DHT22;4872;48.316;10.650;2023-04-08T07:10:35;7.90;99.90
9668;DHT22;4872;48.316;10.650;2023-04-08T07:13:03;7.90;99.90
9668;DHT22;4872;48.316;10.650;2023-04-08T07:15:30;7.90;99.90
9668;DHT22;4872;48.316;10.650;2023-04-08T07:17:57;8.70;99.90
9668;DHT22;4872;48.316;10.650;2023-04-08T07:20:24;8.60;99.90
9668;DHT22;4872;48.316;10.650;2023-04-08T07:22:51;8.30;99.20
9668;DHT22;4872;48.316;10.650;2023-04-08T07:25:18;8.30;99.10
9668;DHT22;4872;48.316;10.650;2023-04-08T07:27:45;8.40;98.70
9668;DHT22;4872;48.316;10.650;2023-04-08T07:30:13;8.50;98.50
9668;DHT22;4872;48.316;10.650;2023-04-08T07:32:40;8.30;98.30
9668;DHT22;4872;48.316;10.650;2023-04-08T07:35:07;8.60;98.80
9668;DHT22;4872;48.316;10.650;2023-04-08T07:37:34;8.60;98.50
9668;DHT22;4872;48.316;10.650;2023-04-08T07:40:01;9.30;98.30
9668;DHT22;4872;48.316;10.650;2023-04-08T07:42:28;8.70;97.80
9668;DHT22;4872;48.316;10.650;2023-04-08T07:44:55;8.90;97.80
9668;DHT22;4872;48.316;10.650;2023-04-08T07:47:23;8.70;98.10
9668;DHT22;4872;48.316;10.650;2023-04-08T07:49:49;8.80;98.00
9668;DHT22;4872;48.316;10.650;2023-04-08T07:52:17;8.60;97.70
9668;DHT22;4872;48.316;10.650;2023-04-08T07:54:43;8.90;98.00
9668;DHT22;4872;48.316;10.650;2023-04-08T07:57:10;8.60;97.80
9668;DHT22;4872;48.316;10.650;2023-04-08T07:59:37;8.50;98.00
9668;DHT22;4872;48.316;10.650;2023-04-08T08:02:03;8.80;98.50
9668;DHT22;4872;48.316;10.650;2023-04-08T08:04:32;8.40;98.50
9668;DHT22;4872;48.316;10.650;2023-04-08T08:06:58;8.70;98.60
9668;DHT22;4872;48.316;10.650;2023-04-08T08:09:25;8.80;98.60
9668;DHT22;4872;48.316;10.650;2023-04-08T08:11:52;8.60;98.30
9668;DHT22;4872;48.316;10.650;2023-04-08T08:14:18;8.70;98.30
9668;DHT22;4872;48.316;10.650;2023-04-08T08:16:46;9.20;98.40
9668;DHT22;4872;48.316;10.650;2023-04-08T08:19:14;8.70;97.90
9668;DHT22;4872;48.316;10.650;2023-04-08T08:21:42;8.80;98.00
9668;DHT22;4872;48.316;10.650;2023-04-08T08:24:09;9.10;97.80
9668;DHT22;4872;48.316;10.650;2023-04-08T08:26:36;8.80;97.10
9668;DHT22;4872;48.316;10.650;2023-04-08T08:29:03;8.70;97.20
9668;DHT22;4872;48.316;10.650;2023-04-08T08:31:31;8.80;97.20
9668;DHT22;4872;48.316;10.650;2023-04-08T08:33:57;8.80;97.40
9668;DHT22;4872;48.316;10.650;2023-04-08T08:36:24;8.70;96.40
9668;DHT22;4872;48.316;10.650;2023-04-08T08:38:53;8.60;96.30
9668;DHT22;4872;48.316;10.650;2023-04-08T08:41:20;8.60;96.40
9668;DHT22;4872;48.316;10.650;2023-04-08T08:43:46;9.00;96.30
9668;DHT22;4872;48.316;10.650;2023-04-08T08:46:15;8.80;96.10
9668;DHT22;4872;48.316;10.650;2023-04-08T08:48:43;9.10;96.60
9668;DHT22;4872;48.316;10.650;2023-04-08T08:51:11;9.10;96.00
9668;DHT22;4872;48.316;10.650;2023-04-08T08:53:38;9.20;95.60
9668;DHT22;4872;48.316;10.650;2023-04-08T08:56:10;9.30;95.20
9668;DHT22;4872;48.316;10.650;2023-04-08T08:58:37;9.30;95.50
9668;DHT22;4872;48.316;10.650;2023-04-08T09:01:31;9.30;93.50
9668;DHT22;4872;48.316;10.650;2023-04-08T09:04:09;9.00;92.50
9668;DHT22;4872;48.316;10.650;2023-04-08T09:06:37;9.00;92.00
9668;DHT22;4872;48.316;10.650;2023-04-08T09:09:04;8.60;90.10
9668;DHT22;4872;48.316;10.650;2023-04-08T09:11:36;8.10;87.70
9668;DHT22;4872;48.316;10.650;2023-04-08T09:14:03;7.90;88.70
9668;DHT22;4872;48.316;10.650;2023-04-08T09:16:31;7.80;90.50
9668;DHT22;4872;48.316;10.650;2023-04-08T09:19:09;7.90;91.30
9668;DHT22;4872;48.316;10.650;2023-04-08T09:21:37;8.00;92.70
9668;DHT22;4872;48.316;10.650;2023-04-08T09:24:06;8.00;92.20
9668;DHT22;4872;48.316;10.650;2023-04-08T09:26:33;8.10;92.60
9668;DHT22;4872;48.316;10.650;2023-04-08T09:29:04;8.30;93.00
9668;DHT22;4872;48.316;10.650;2023-04-08T09:31:32;8.30;92.70
9668;DHT22;4872;48.316;10.650;2023-04-08T09:34:09;8.30;92.10
9668;DHT22;4872;48.316;10.650;2023-04-08T09:36:36;8.20;91.90
9668;DHT22;4872;48.316;10.650;2023-04-08T09:39:03;8.30;92.50
9668;DHT22;4872;48.316;10.650;2023-04-08T09:41:33;8.30;91.90
9668;DHT22;4872;48.316;10.650;2023-04-08T09:44:04;8.60;92.60
9668;DHT22;4872;48.316;10.650;2023-04-08T09:46:43;8.70;92.30
9668;DHT22;4872;48.316;10.650;2023-04-08T09:49:18;8.30;91.70
9668;DHT22;4872;48.316;10.650;2023-04-08T09:51:49;8.30;92.10
9668;DHT22;4872;48.316;10.650;2023-04-08T09:54:21;8.50;91.60
9668;DHT22;4872;48.316;10.650;2023-04-08T09:56:53;8.40;91.90
9668;DHT22;4872;48.316;10.650;2023-04-08T09:59:24;8.40;92.40
9668;DHT22;4872;48.316;10.650;2023-04-08T10:01:53;8.10;90.70
9668;DHT22;4872;48.316;10.650;2023-04-08T10:04:23;8.00;90.30
9668;DHT22;4872;48.316;10.650;2023-04-08T10:06:56;8.00;90.40
9668;DHT22;4872;48.316;10.650;2023-04-08T10:09:23;8.10;90.90
9668;DHT22;4872;48.316;10.650;2023-04-08T10:11:50;8.20;90.90
9668;DHT22;4872;48.316;10.650;2023-04-08T10:14:18;8.20;90.20
9668;DHT22;4872;48.316;10.650;2023-04-08T10:16:47;8.20;89.90
9668;DHT22;4872;48.316;10.650;2023-04-08T10:19:36;8.80;90.60
9668;DHT22;4872;48.316;10.650;2023-04-08T10:25:28;8.30;89.10
9668;DHT22;4872;48.316;10.650;2023-04-08T10:27:56;8.40;88.60
9668;DHT22;4872;48.316;10.650;2023-04-08T10:30:39;8.30;88.30
9668;DHT22;4872;48.316;10.650;2023-04-08T10:33:11;8.30;87.50
9668;DHT22;4872;48.316;10.650;2023-04-08T10:35:40;8.40;87.60
9668;DHT22;4872;48.316;10.650;2023-04-08T10:38:08;8.60;87.00
9668;DHT22;4872;48.316;10.650;2023-04-08T10:40:36;8.50;86.70
9668;DHT22;4872;48.316;10.650;2023-04-08T10:43:06;8.50;85.90
9668;DHT22;4872;48.316;10.650;2023-04-08T10:45:33;8.40;85.00
9668;DHT22;4872;48.316;10.650;2023-04-08T10:48:16;8.40;85.20
9668;DHT22;4872;48.316;10.650;2023-04-08T10:50:44;8.40;85.70
9668;DHT22;4872;48.316;10.650;2023-04-08T10:53:11;8.60;85.80
9668;DHT22;4872;48.316;10.650;2023-04-08T10:55:37;8.80;85.60
9668;DHT22;4872;48.316;10.650;2023-04-08T10:58:05;8.90;83.20
9668;DHT22;4872;48.316;10.650;2023-04-08T11:00:34;9.00;83.40
9668;DHT22;4872;48.316;10.650;2023-04-08T11:03:02;9.10;83.40
9668;DHT22;4872;48.316;10.650;2023-04-08T11:05:30;9.50;83.50
9668;DHT22;4872;48.316;10.650;2023-04-08T11:07:57;9.90;84.30
9668;DHT22;4872;48.316;10.650;2023-04-08T11:10:24;10.00;81.30
9668;DHT22;4872;48.316;10.650;2023-04-08T11:12:53;10.40;82.20
9668;DHT22;4872;48.316;10.650;2023-04-08T11:15:20;10.50;81.20
9668;DHT22;4872;48.316;10.650;2023-04-08T11:17:47;10.60;80.90
9668;DHT22;4872;48.316;10.650;2023-04-08T11:20:14;10.90;81.60
9668;DHT22;4872;48.316;10.650;2023-04-08T11:22:43;11.10;80.70
9668;DHT22;4872;48.316;10.650;2023-04-08T11:25:10;11.10;77.70
9668;DHT22;4872;48.316;10.650;2023-04-08T11:27:37;11.10;78.50
9668;DHT22;4872;48.316;10.650;2023-04-08T11:30:06;11.00;78.20
9668;DHT22;4872;48.316;10.650;2023-04-08T11:32:34;11.00;77.10
9668;DHT22;4872;48.316;10.650;2023-04-08T11:35:03;10.40;76.50
9668;DHT22;4872;48.316;10.650;2023-04-08T11:37:36;10.50;78.50
9668;DHT22;4872;48.316;10.650;2023-04-08T11:40:07;10.60;78.20
9668;DHT22;4872;48.316;10.650;2023-04-08T11:42:35;10.70;79.00
9668;DHT22;4872;48.316;10.650;2023-04-08T11:45:09;10.90;77.90
9668;DHT22;4872;48.316;10.650;2023-04-08T11:47:36;10.90;80.00
9668;DHT22;4872;48.316;10.650;2023-04-08T11:50:04;10.70;77.60
9668;DHT22;4872;48.316;10.650;2023-04-08T11:52:41;10.70;77.50
9668;DHT22;4872;48.316;10.650;2023-04-08T11:55:10;10.50;76.00
9668;DHT22;4872;48.316;10.650;2023-04-08T11:57:37;10.40;76.20
9668;DHT22;4872;48.316;10.650;2023-04-08T12:00:05;10.40;76.50
9668;DHT22;4872;48.316;10.650;2023-04-08T12:02:32;10.20;78.80
9668;DHT22;4872;48.316;10.650;2023-04-08T12:04:59;10.30;78.50
9668;DHT22;4872;48.316;10.650;2023-04-08T12:07:26;10.40;77.80
9668;DHT22;4872;48.316;10.650;2023-04-08T12:09:53;10.50;78.50
9668;DHT22;4872;48.316;10.650;2023-04-08T12:12:21;10.50;76.00
9668;DHT22;4872;48.316;10.650;2023-04-08T12:14:48;10.50;77.10
9668;DHT22;4872;48.316;10.650;2023-04-08T12:17:14;10.50;77.70
9668;DHT22;4872;48.316;10.650;2023-04-08T12:19:41;10.60;78.10
9668;DHT22;4872;48.316;10.650;2023-04-08T12:22:07;10.50;77.50
9668;DHT22;4872;48.316;10.650;2023-04-08T12:24:34;10.60;77.00
9668;DHT22;4872;48.316;10.650;2023-04-08T12:27:01;10.60;77.10
9668;DHT22;4872;48.316;10.650;2023-04-08T12:29:30;10.40;77.00
9668;DHT22;4872;48.316;10.650;2023-04-08T12:31:57;10.30;78.00
9668;DHT22;4872;48.316;10.650;2023-04-08T12:34:24;10.30;77.70
9668;DHT22;4872;48.316;10.650;2023-04-08T12:36:51;10.40;77.70
9668;DHT22;4872;48.316;10.650;2023-04-08T12:39:17;11.30;78.50
9668;DHT22;4872;48.316;10.650;2023-04-08T12:41:44;10.20;77.40
9668;DHT22;4872;48.316;10.650;2023-04-08T12:44:11;9.90;78.80
9668;DHT22;4872;48.316;10.650;2023-04-08T12:46:39;9.60;77.70
9668;DHT22;4872;48.316;10.650;2023-04-08T12:49:06;9.60;78.60
9668;DHT22;4872;48.316;10.650;2023-04-08T12:51:33;9.40;79.40
9668;DHT22;4872;48.316;10.650;2023-04-08T12:54:00;9.40;79.60
9668;DHT22;4872;48.316;10.650;2023-04-08T12:56:28;9.40;81.50
9668;DHT22;4872;48.316;10.650;2023-04-08T12:58:55;9.30;80.80
9668;DHT22;4872;48.316;10.650;2023-04-08T13:01:22;9.30;81.30
9668;DHT22;4872;48.316;10.650;2023-04-08T13:03:50;9.30;82.00
9668;DHT22;4872;48.316;10.650;2023-04-08T13:06:17;9.20;82.00
9668;DHT22;4872;48.316;10.650;2023-04-08T13:08:43;9.20;81.00
9668;DHT22;4872;48.316;10.650;2023-04-08T13:11:11;9.10;81.20
9668;DHT22;4872;48.316;10.650;2023-04-08T13:13:38;9.00;81.70
9668;DHT22;4872;48.316;10.650;2023-04-08T13:16:05;9.00;82.70
9668;DHT22;4872;48.316;10.650;2023-04-08T13:18:33;8.90;83.20
9668;DHT22;4872;48.316;10.650;2023-04-08T13:21:02;8.80;82.70
9668;DHT22;4872;48.316;10.650;2023-04-08T13:23:29;8.70;83.50
9668;DHT22;4872;48.316;10.650;2023-04-08T13:25:55;8.50;83.90
9668;DHT22;4872;48.316;10.650;2023-04-08T13:28:22;8.50;84.10
9668;DHT22;4872;48.316;10.650;2023-04-08T13:30:49;8.40;84.00
9668;DHT22;4872;48.316;10.650;2023-04-08T13:33:16;8.40;84.10
9668;DHT22;4872;48.316;10.650;2023-04-08T13:35:43;8.40;83.90
9668;DHT22;4872;48.316;10.650;2023-04-08T13:38:11;8.40;84.70
9668;DHT22;4872;48.316;10.650;2023-04-08T13:40:38;8.40;85.00
9668;DHT22;4872;48.316;10.650;2023-04-08T13:43:05;8.50;85.40
9668;DHT22;4872;48.316;10.650;2023-04-08T13:45:32;8.60;84.60
9668;DHT22;4872;48.316;10.650;2023-04-08T13:47:59;8.50;84.30
9668;DHT22;4872;48.316;10.650;2023-04-08T13:50:26;8.50;84.50
9668;DHT22;4872;48.316;10.650;2023-04-08T13:52:52;8.50;84.90
9668;DHT22;4872;48.316;10.650;2023-04-08T13:55:20;8.60;84.90
9668;DHT22;4872;48.316;10.650;2023-04-08T13:57:47;8.60;84.60
9668;DHT22;4872;48.316;10.650;2023-04-08T14:00:14;8.50;84.40
9668;DHT22;4872;48.316;10.650;2023-04-08T14:02:41;8.60;84.60
9668;DHT22;4872;48.316;10.650;2023-04-08T14:05:08;8.60;84.90
9668;DHT22;4872;48.316;10.650;2023-04-08T14:07:35;8.60;84.90
9668;DHT22;4872;48.316;10.650;2023-04-08T14:10:02;8.70;84.80
9668;DHT22;4872;48.316;10.650;2023-04-08T14:12:30;8.70;85.20
9668;DHT22;4872;48.316;10.650;2023-04-08T14:14:57;8.60;85.70
9668;DHT22;4872;48.316;10.650;2023-04-08T14:17:23;8.50;87.60
9668;DHT22;4872;48.316;10.650;2023-04-08T14:19:50;8.70;89.60
9668;DHT22;4872;48.316;10.650;2023-04-08T14:22:17;8.30;90.30
9668;DHT22;4872;48.316;10.650;2023-04-08T14:24:43;8.20;90.50
9668;DHT22;4872;48.316;10.650;2023-04-08T14:27:10;8.10;90.80
9668;DHT22;4872;48.316;10.650;2023-04-08T14:29:38;8.00;91.10
9668;DHT22;4872;48.316;10.650;2023-04-08T14:32:11;8.00;91.50
9668;DHT22;4872;48.316;10.650;2023-04-08T14:34:39;8.00;91.70
9668;DHT22;4872;48.316;10.650;2023-04-08T14:37:05;7.90;91.80
9668;DHT22;4872;48.316;10.650;2023-04-08T14:39:32;7.90;91.90
9668;DHT22;4872;48.316;10.650;2023-04-08T14:41:59;7.80;92.00
9668;DHT22;4872;48.316;10.650;2023-04-08T14:44:26;7.80;92.60
9668;DHT22;4872;48.316;10.650;2023-04-08T14:46:54;7.80;93.30
9668;DHT22;4872;48.316;10.650;2023-04-08T14:49:21;7.80;93.60
9668;DHT22;4872;48.316;10.650;2023-04-08T14:51:48;7.80;93.80
9668;DHT22;4872;48.316;10.650;2023-04-08T14:54:14;7.90;94.10
9668;DHT22;4872;48.316;10.650;2023-04-08T14:56:43;7.90;93.70
9668;DHT22;4872;48.316;10.650;2023-04-08T14:59:10;7.80;94.30
9668;DHT22;4872;48.316;10.650;2023-04-08T15:01:37;7.90;94.10
9668;DHT22;4872;48.316;10.650;2023-04-08T15:04:05;7.80;94.30
9668;DHT22;4872;48.316;10.650;2023-04-08T15:06:32;7.80;94.60
9668;DHT22;4872;48.316;10.650;2023-04-08T15:08:58;7.80;94.30
9668;DHT22;4872;48.316;10.650;2023-04-08T15:11:25;7.80;94.50
9668;DHT22;4872;48.316;10.650;2023-04-08T15:13:52;7.80;94.40
9668;DHT22;4872;48.316;10.650;2023-04-08T15:16:19;7.80;94.80
9668;DHT22;4872;48.316;10.650;2023-04-08T15:18:46;7.90;95.00
9668;DHT22;4872;48.316;10.650;2023-04-08T15:21:14;7.90;94.90
9668;DHT22;4872;48.316;10.650;2023-04-08T15:23:40;8.00;94.90
9668;DHT22;4872;48.316;10.650;2023-04-08T15:26:08;8.00;94.90
9668;DHT22;4872;48.316;10.650;2023-04-08T15:28:34;8.00;95.00
9668;DHT22;4872;48.316;10.650;2023-04-08T15:31:03;7.90;95.00
9668;DHT22;4872;48.316;10.650;2023-04-08T15:33:30;7.80;95.10
9668;DHT22;4872;48.316;10.650;2023-04-08T15:35:58;8.00;95.10
9668;DHT22;4872;48.316;10.650;2023-04-08T15:38:28;7.90;94.90
9668;DHT22;4872;48.316;10.650;2023-04-08T15:40:57;7.90;94.90
9668;DHT22;4872;48.316;10.650;2023-04-08T15:43:24;8.00;94.80
9668;DHT22;4872;48.316;10.650;2023-04-08T15:45:51;7.90;94.70
9668;DHT22;4872;48.316;10.650;2023-04-08T15:48:18;7.80;94.90
9668;DHT22;4872;48.316;10.650;2023-04-08T15:50:45;7.80;95.20
9668;DHT22;4872;48.316;10.650;2023-04-08T15:53:11;7.80;95.50
9668;DHT22;4872;48.316;10.650;2023-04-08T15:55:40;7.80;95.30
9668;DHT22;4872;48.316;10.650;2023-04-08T15:58:06;7.80;95.40
9668;DHT22;4872;48.316;10.650;2023-04-08T16:00:33;7.80;95.50
9668;DHT22;4872;48.316;10.650;2023-04-08T16:03:00;7.70;95.50
9668;DHT22;4872;48.316;10.650;2023-04-08T16:05:27;7.80;95.40
9668;DHT22;4872;48.316;10.650;2023-04-08T16:07:53;7.70;95.40
9668;DHT22;4872;48.316;10.650;2023-04-08T16:10:20;7.70;95.70
9668;DHT22;4872;48.316;10.650;2023-04-08T16:12:48;7.60;95.70
9668;DHT22;4872;48.316;10.650;2023-04-08T16:15:16;7.60;95.90
9668;DHT22;4872;48.316;10.650;2023-04-08T16:17:43;7.60;96.00
9668;DHT22;4872;48.316;10.650;2023-04-08T16:20:15;7.60;95.90
9668;DHT22;4872;48.316;10.650;2023-04-08T16:22:41;7.60;95.60
9668;DHT22;4872;48.316;10.650;2023-04-08T16:25:08;7.60;95.50
9668;DHT22;4872;48.316;10.650;2023-04-08T16:27:36;7.60;95.90
9668;DHT22;4872;48.316;10.650;2023-04-08T16:30:05;7.60;96.20
9668;DHT22;4872;48.316;10.650;2023-04-08T16:32:32;7.60;96.20
9668;DHT22;4872;48.316;10.650;2023-04-08T16:34:59;7.60;95.60
9668;DHT22;4872;48.316;10.650;2023-04-08T16:37:26;7.60;95.60
9668;DHT22;4872;48.316;10.650;2023-04-08T16:39:52;7.60;95.80
9668;DHT22;4872;48.316;10.650;2023-04-08T16:42:20;7.40;95.70
9668;DHT22;4872;48.316;10.650;2023-04-08T16:44:46;7.40;96.20
9668;DHT22;4872;48.316;10.650;2023-04-08T16:47:14;7.80;96.50
9668;DHT22;4872;48.316;10.650;2023-04-08T16:49:41;7.40;96.20
9668;DHT22;4872;48.316;10.650;2023-04-08T16:52:08;7.30;96.00
9668;DHT22;4872;48.316;10.650;2023-04-08T16:54:34;7.40;96.30
9668;DHT22;4872;48.316;10.650;2023-04-08T16:57:01;7.30;96.40
9668;DHT22;4872;48.316;10.650;2023-04-08T16:59:28;7.20;96.50
9668;DHT22;4872;48.316;10.650;2023-04-08T17:01:55;7.20;96.60
9668;DHT22;4872;48.316;10.650;2023-04-08T17:04:24;7.30;96.50
9668;DHT22;4872;48.316;10.650;2023-04-08T17:06:51;7.60;96.60
9668;DHT22;4872;48.316;10.650;2023-04-08T17:09:17;7.20;96.60
9668;DHT22;4872;48.316;10.650;2023-04-08T17:11:44;7.10;96.80
9668;DHT22;4872;48.316;10.650;2023-04-08T17:14:11;7.10;97.00
9668;DHT22;4872;48.316;10.650;2023-04-08T17:16:37;7.20;97.10
9668;DHT22;4872;48.316;10.650;2023-04-08T17:19:04;7.20;96.90
9668;DHT22;4872;48.316;10.650;2023-04-08T17:21:32;7.20;96.90
9668;DHT22;4872;48.316;10.650;2023-04-08T17:23:59;7.20;97.20
9668;DHT22;4872;48.316;10.650;2023-04-08T17:26:26;7.10;96.70
9668;DHT22;4872;48.316;10.650;2023-04-08T17:28:53;7.10;97.40
9668;DHT22;4872;48.316;10.650;2023-04-08T17:31:20;7.10;97.00
9668;DHT22;4872;48.316;10.650;2023-04-08T17:33:47;7.10;97.20
9668;DHT22;4872;48.316;10.650;2023-04-08T17:36:13;7.00;97.20
9668;DHT22;4872;48.316;10.650;2023-04-08T17:38:43;7.00;97.60
9668;DHT22;4872;48.316;10.650;2023-04-08T17:41:12;7.00;97.80
9668;DHT22;4872;48.316;10.650;2023-04-08T17:43:39;7.00;97.50
9668;DHT22;4872;48.316;10.650;2023-04-08T17:46:05;7.00;97.60
9668;DHT22;4872;48.316;10.650;2023-04-08T17:48:32;7.00;97.80
9668;DHT22;4872;48.316;10.650;2023-04-08T17:50:59;7.10;97.50
9668;DHT22;4872;48.316;10.650;2023-04-08T17:53:26;7.00;97.60
9668;DHT22;4872;48.316;10.650;2023-04-08T17:55:54;6.90;97.80
9668;DHT22;4872;48.316;10.650;2023-04-08T17:58:21;6.90;98.30
9668;DHT22;4872;48.316;10.650;2023-04-08T18:00:48;6.80;98.10
9668;DHT22;4872;48.316;10.650;2023-04-08T18:03:15;6.80;98.20
9668;DHT22;4872;48.316;10.650;2023-04-08T18:05:42;6.80;98.50
9668;DHT22;4872;48.316;10.650;2023-04-08T18:08:09;6.90;98.50
9668;DHT22;4872;48.316;10.650;2023-04-08T18:10:36;6.90;98.40
9668;DHT22;4872;48.316;10.650;2023-04-08T18:13:04;6.90;98.40
9668;DHT22;4872;48.316;10.650;2023-04-08T18:15:33;6.90;98.50
9668;DHT22;4872;48.316;10.650;2023-04-08T18:18:00;7.00;98.50
9668;DHT22;4872;48.316;10.650;2023-04-08T18:20:27;6.90;98.10
9668;DHT22;4872;48.316;10.650;2023-04-08T18:22:54;6.90;98.20
9668;DHT22;4872;48.316;10.650;2023-04-08T18:25:21;6.90;98.30
9668;DHT22;4872;48.316;10.650;2023-04-08T18:27:48;6.90;98.30
9668;DHT22;4872;48.316;10.650;2023-04-08T18:30:16;7.10;98.30
9668;DHT22;4872;48.316;10.650;2023-04-08T18:32:43;6.90;98.30
9668;DHT22;4872;48.316;10.650;2023-04-08T18:35:10;6.90;98.00
9668;DHT22;4872;48.316;10.650;2023-04-08T18:37:36;6.90;98.00
9668;DHT22;4872;48.316;10.650;2023-04-08T18:40:04;6.90;98.00
9668;DHT22;4872;48.316;10.650;2023-04-08T18:42:31;6.90;98.00
9668;DHT22;4872;48.316;10.650;2023-04-08T18:44:58;6.90;98.10
9668;DHT22;4872;48.316;10.650;2023-04-08T18:47:26;6.90;98.10
9668;DHT22;4872;48.316;10.650;2023-04-08T18:49:53;6.80;98.00
9668;DHT22;4872;48.316;10.650;2023-04-08T18:52:21;7.00;98.10
9668;DHT22;4872;48.316;10.650;2023-04-08T18:54:47;6.80;97.90
9668;DHT22;4872;48.316;10.650;2023-04-08T18:57:14;6.80;97.90
9668;DHT22;4872;48.316;10.650;2023-04-08T18:59:41;6.80;98.30
9668;DHT22;4872;48.316;10.650;2023-04-08T19:02:07;6.80;98.20
9668;DHT22;4872;48.316;10.650;2023-04-08T19:04:35;6.80;98.00
9668;DHT22;4872;48.316;10.650;2023-04-08T19:07:03;6.80;98.10
9668;DHT22;4872;48.316;10.650;2023-04-08T19:09:29;6.80;98.00
9668;DHT22;4872;48.316;10.650;2023-04-08T19:11:56;6.80;98.10
9668;DHT22;4872;48.316;10.650;2023-04-08T19:14:23;6.80;98.00
9668;DHT22;4872;48.316;10.650;2023-04-08T19:16:50;6.70;98.40
9668;DHT22;4872;48.316;10.650;2023-04-08T19:19:16;6.50;98.50
9668;DHT22;4872;48.316;10.650;2023-04-08T19:21:44;6.40;98.80
9668;DHT22;4872;48.316;10.650;2023-04-08T19:24:13;6.30;98.90
9668;DHT22;4872;48.316;10.650;2023-04-08T19:26:39;6.20;99.50
9668;DHT22;4872;48.316;10.650;2023-04-08T19:29:06;6.20;99.30
9668;DHT22;4872;48.316;10.650;2023-04-08T19:31:33;6.10;99.40
9668;DHT22;4872;48.316;10.650;2023-04-08T19:34:00;6.20;99.60
9668;DHT22;4872;48.316;10.650;2023-04-08T19:36:27;6.20;99.70
9668;DHT22;4872;48.316;10.650;2023-04-08T19:38:55;6.20;99.50
9668;DHT22;4872;48.316;10.650;2023-04-08T19:41:22;6.20;99.60
9668;DHT22;4872;48.316;10.650;2023-04-08T19:43:48;6.10;99.90
9668;DHT22;4872;48.316;10.650;2023-04-08T19:46:15;6.10;99.90
9668;DHT22;4872;48.316;10.650;2023-04-08T19:48:42;6.00;99.90
9668;DHT22;4872;48.316;10.650;2023-04-08T19:51:14;6.00;99.90
9668;DHT22;4872;48.316;10.650;2023-04-08T19:53:41;6.10;99.90
9668;DHT22;4872;48.316;10.650;2023-04-08T19:56:09;6.10;99.90
9668;DHT22;4872;48.316;10.650;2023-04-08T19:58:36;6.10;99.90
9668;DHT22;4872;48.316;10.650;2023-04-08T20:01:03;6.10;99.90
9668;DHT22;4872;48.316;10.650;2023-04-08T20:03:31;6.00;99.90
9668;DHT22;4872;48.316;10.650;2023-04-08T20:05:58;6.10;99.90
9668;DHT22;4872;48.316;10.650;2023-04-08T20:08:25;6.10;99.90